Terminal Aerodrome Forecast
Issued by NWS Miami, FL

Home | Current Version | Previous Version | Text Only | Print | Product List | Glossary On
Versions: 1 2 3 4 5 6 7 8 9 10 11 12 13 14 15 16 17 18 19 20 21 22 23 24 25 26
000
FTUS42 KMFL 231241 AAA
TAFFLL
TAF AMD
KFLL 231241Z 2313/2412 05011KT P6SM SCT030 SCT100
     FM231600 07016G26KT P6SM VCTS SCT025CB BKN050
     FM232200 07017G27KT P6SM VCSH SCT025 BKN050=

USA.gov is the U.S. government's official web portal to all federal, state and local government web resources and services.